createdAt,value
2023-01-25T00:01:14.359Z,81.76
2023-01-25T00:03:28.237Z,81.99
2023-01-25T00:05:41.755Z,82.27
2023-01-25T00:07:54.976Z,82.35
2023-01-25T00:10:10.237Z,82.33
2023-01-25T00:12:23.344Z,82.46
2023-01-25T00:14:37.689Z,82.48
2023-01-25T00:16:50.922Z,82.21
2023-01-25T00:19:04.145Z,82.26
2023-01-25T00:21:22.028Z,81.99
2023-01-25T00:23:37.480Z,81.85
2023-01-25T00:25:50.801Z,81.80
2023-01-25T00:28:04.914Z,82.04
2023-01-25T00:30:21.660Z,82.03
2023-01-25T00:32:51.685Z,82.06
2023-01-25T00:35:06.422Z,82.05
2023-01-25T00:37:27.938Z,81.98
2023-01-25T00:39:47.297Z,81.80
2023-01-25T00:42:02.208Z,81.50
2023-01-25T00:44:16.475Z,81.64
2023-01-25T00:46:30.776Z,81.94
2023-01-25T00:48:44.407Z,81.83
2023-01-25T00:50:58.695Z,81.80
2023-01-25T00:53:12.306Z,81.85
2023-01-25T00:55:26.196Z,81.81
2023-01-25T00:57:40.514Z,81.81
2023-01-25T00:59:54.433Z,81.97
2023-01-25T01:02:09.003Z,81.98
2023-01-25T01:04:22.508Z,81.96
2023-01-25T01:06:38.740Z,81.75
2023-01-25T01:08:52.513Z,81.81
2023-01-25T01:11:11.790Z,81.56
2023-01-25T01:13:25.391Z,81.58
2023-01-25T01:15:43.249Z,81.47
2023-01-25T01:17:56.994Z,81.60
2023-01-25T01:20:11.754Z,81.37
2023-01-25T01:22:26.322Z,81.51
2023-01-25T01:24:39.891Z,81.54
2023-01-25T01:26:55.509Z,81.59
2023-01-25T01:29:09.444Z,81.68
2023-01-25T01:31:24.932Z,81.72
2023-01-25T01:33:52.134Z,81.85
2023-01-25T01:36:10.408Z,82.01
2023-01-25T01:38:23.993Z,82.08
2023-01-25T01:40:38.200Z,81.93
2023-01-25T01:43:05.113Z,81.72
2023-01-25T01:46:01.531Z,81.59
2023-01-25T01:48:24.210Z,81.50
2023-01-25T01:50:37.930Z,81.62
2023-01-25T01:52:52.631Z,81.65
2023-01-25T01:55:11.490Z,81.69
2023-01-25T01:57:28.198Z,81.54
2023-01-25T01:59:47.491Z,81.61
2023-01-25T02:02:01.094Z,81.64
2023-01-25T02:04:17.539Z,81.66
2023-01-25T02:06:40.310Z,81.58
2023-01-25T02:08:55.859Z,81.45
2023-01-25T02:11:11.452Z,81.35
2023-01-25T02:13:25.790Z,81.17
2023-01-25T02:15:45.411Z,81.05
2023-01-25T02:17:59.490Z,81.23
2023-01-25T02:20:26.699Z,81.45
2023-01-25T02:22:45.946Z,81.53
2023-01-25T02:25:09.587Z,81.59
2023-01-25T02:27:23.670Z,81.65
2023-01-25T02:29:39.660Z,81.62
2023-01-25T02:31:54.432Z,81.74
2023-01-25T02:34:08.272Z,81.63
2023-01-25T02:36:29.541Z,81.64
2023-01-25T02:38:46.956Z,81.65
2023-01-25T02:41:04.334Z,81.58
2023-01-25T02:43:18.613Z,81.72
2023-01-25T02:45:35.291Z,81.73
2023-01-25T02:47:49.911Z,81.64
2023-01-25T02:50:05.031Z,81.70
2023-01-25T02:52:19.024Z,81.69
2023-01-25T02:54:33.027Z,81.89
2023-01-25T02:56:50.026Z,82.03
2023-01-25T02:59:06.827Z,82.09
2023-01-25T03:01:21.251Z,82.11
2023-01-25T03:03:35.279Z,82.16
2023-01-25T03:05:50.061Z,82.36
2023-01-25T03:08:04.953Z,82.62
2023-01-25T03:10:19.967Z,82.76
2023-01-25T03:12:35.241Z,82.75
2023-01-25T03:14:48.943Z,82.64
2023-01-25T03:17:04.711Z,82.57
2023-01-25T03:19:18.469Z,82.58
2023-01-25T03:21:32.185Z,82.39
2023-01-25T03:23:46.629Z,82.41
2023-01-25T03:26:12.476Z,82.55
2023-01-25T03:28:36.470Z,82.64
2023-01-25T03:30:52.340Z,82.74
2023-01-25T03:33:06.199Z,82.53
2023-01-25T03:35:21.042Z,82.66
2023-01-25T03:37:35.377Z,82.76
2023-01-25T03:39:50.561Z,82.76
2023-01-25T03:42:06.011Z,82.93
2023-01-25T03:44:19.992Z,82.99
2023-01-25T03:46:33.669Z,82.91
2023-01-25T03:48:47.170Z,82.98
2023-01-25T03:51:02.752Z,82.87
2023-01-25T03:53:28.512Z,82.99
2023-01-25T03:55:46.455Z,82.94
2023-01-25T03:58:00.780Z,82.82
2023-01-25T04:00:17.815Z,82.79
2023-01-25T04:02:33.772Z,82.83
2023-01-25T04:04:48.021Z,83.09
2023-01-25T04:07:02.701Z,83.09
2023-01-25T04:09:17.669Z,83.34
2023-01-25T04:11:35.342Z,83.40
2023-01-25T04:13:50.123Z,83.58
2023-01-25T04:16:04.253Z,83.47
2023-01-25T04:18:37.543Z,83.67
2023-01-25T04:20:55.690Z,83.71
2023-01-25T04:23:10.546Z,83.80
2023-01-25T04:25:24.650Z,83.89
2023-01-25T04:27:39.541Z,83.95
2023-01-25T04:29:56.942Z,83.85
2023-01-25T04:32:11.993Z,83.95
2023-01-25T04:34:29.354Z,83.88
2023-01-25T04:36:43.585Z,83.93
2023-01-25T04:38:57.553Z,83.93
2023-01-25T04:41:11.841Z,84.14
2023-01-25T04:43:27.384Z,84.12
2023-01-25T04:45:44.393Z,84.13
2023-01-25T04:48:11.025Z,84.15
2023-01-25T04:50:30.791Z,84.14
2023-01-25T04:52:45.955Z,84.13
2023-01-25T04:54:59.754Z,84.19
2023-01-25T04:57:14.503Z,84.24
2023-01-25T04:59:32.361Z,84.17
2023-01-25T05:01:46.016Z,84.27
2023-01-25T05:03:59.498Z,84.36
2023-01-25T05:06:21.462Z,84.31
2023-01-25T05:08:35.022Z,84.17
2023-01-25T05:10:48.504Z,84.15
2023-01-25T05:13:35.925Z,84.26
2023-01-25T05:15:59.184Z,84.30
2023-01-25T05:18:12.653Z,84.25
2023-01-25T05:20:25.747Z,84.35
2023-01-25T05:22:39.473Z,84.28
2023-01-25T05:24:52.587Z,84.25
2023-01-25T05:27:09.240Z,84.29
2023-01-25T05:29:44.180Z,84.49
2023-01-25T05:31:57.941Z,84.42
2023-01-25T05:34:14.766Z,84.38
2023-01-25T05:36:27.876Z,84.39
2023-01-25T05:38:41.208Z,84.26
2023-01-25T05:40:55.244Z,84.24
2023-01-25T05:43:08.114Z,84.30
2023-01-25T05:45:21.049Z,84.31
2023-01-25T05:47:34.074Z,84.24
2023-01-25T05:49:47.574Z,84.09
2023-01-25T05:52:10.067Z,84.24
2023-01-25T05:54:23.582Z,84.20
2023-01-25T05:56:43.736Z,84.41
2023-01-25T05:59:03.035Z,84.42
2023-01-25T06:01:16.000Z,84.47
2023-01-25T06:03:33.233Z,84.40
2023-01-25T06:05:46.194Z,84.50
2023-01-25T06:07:59.392Z,84.63
2023-01-25T06:10:19.323Z,84.64
2023-01-25T06:12:37.072Z,84.71
2023-01-25T06:14:50.044Z,85.00
2023-01-25T06:17:02.916Z,84.93
2023-01-25T06:19:36.131Z,85.02
2023-01-25T06:22:02.509Z,85.21
2023-01-25T06:24:15.675Z,85.25
2023-01-25T06:26:28.589Z,85.36
2023-01-25T06:28:42.303Z,85.41
2023-01-25T06:30:55.306Z,85.46
2023-01-25T06:33:08.373Z,85.38
2023-01-25T06:35:22.129Z,85.74
2023-01-25T06:37:35.074Z,85.78
2023-01-25T06:39:48.065Z,85.72
2023-01-25T06:42:01.224Z,85.68
2023-01-25T06:44:14.567Z,85.69
2023-01-25T06:46:28.295Z,85.74
2023-01-25T06:48:42.149Z,85.56
2023-01-25T06:51:00.314Z,85.80
2023-01-25T06:53:13.805Z,85.77
2023-01-25T06:55:27.354Z,85.99
2023-01-25T06:57:40.506Z,85.97
2023-01-25T06:59:53.484Z,86.15
2023-01-25T07:02:06.482Z,86.07
2023-01-25T07:04:19.730Z,86.25
2023-01-25T07:06:37.118Z,86.33
2023-01-25T07:08:51.364Z,86.54
2023-01-25T07:11:07.361Z,86.38
2023-01-25T07:13:21.027Z,86.43
2023-01-25T07:15:33.834Z,86.34
2023-01-25T07:17:46.663Z,86.17
2023-01-25T07:19:59.935Z,86.25
2023-01-25T07:22:13.409Z,86.37
2023-01-25T07:24:28.204Z,86.29
2023-01-25T07:26:42.093Z,86.31
2023-01-25T07:28:56.394Z,86.18
2023-01-25T07:31:13.087Z,86.18
2023-01-25T07:33:26.034Z,86.21
2023-01-25T07:35:40.385Z,86.15
2023-01-25T07:37:54.114Z,86.07
2023-01-25T07:40:06.913Z,86.23
2023-01-25T07:42:20.220Z,86.33
2023-01-25T07:44:38.820Z,86.45
2023-01-25T07:46:59.033Z,86.42
2023-01-25T07:49:11.843Z,86.42
2023-01-25T07:51:27.809Z,86.47
2023-01-25T07:53:40.856Z,86.61
2023-01-25T07:55:57.343Z,86.66
2023-01-25T07:58:11.636Z,86.65
2023-01-25T08:00:25.539Z,86.71
2023-01-25T08:02:38.763Z,86.70
2023-01-25T08:04:52.605Z,86.69
2023-01-25T08:07:05.715Z,86.65
2023-01-25T08:09:21.535Z,86.61
2023-01-25T08:11:35.941Z,86.71
2023-01-25T08:13:50.753Z,86.66
2023-01-25T08:16:04.829Z,86.69
2023-01-25T08:18:17.635Z,86.77
2023-01-25T08:20:30.895Z,86.56
2023-01-25T08:22:44.153Z,86.63
2023-01-25T08:25:02.238Z,86.64
2023-01-25T08:27:15.343Z,86.75
2023-01-25T08:29:29.376Z,86.61
2023-01-25T08:31:44.831Z,86.55
2023-01-25T08:33:58.491Z,86.50
2023-01-25T08:36:13.893Z,86.60
2023-01-25T08:38:27.295Z,86.66
2023-01-25T08:40:40.372Z,86.65
2023-01-25T08:42:53.983Z,86.73
2023-01-25T08:45:07.648Z,86.78
2023-01-25T08:47:21.024Z,86.80
2023-01-25T08:49:35.654Z,86.90
2023-01-25T08:51:49.386Z,86.68
2023-01-25T08:54:05.253Z,86.71
2023-01-25T08:56:19.781Z,86.68
2023-01-25T08:58:33.364Z,86.62
2023-01-25T09:00:47.244Z,86.75
2023-01-25T09:03:01.489Z,86.65
2023-01-25T09:05:15.550Z,86.80
2023-01-25T09:07:28.393Z,86.85
2023-01-25T09:09:41.404Z,86.81
2023-01-25T09:11:54.527Z,86.94
2023-01-25T09:14:08.054Z,86.86
2023-01-25T09:16:29.540Z,86.94
2023-01-25T09:18:43.586Z,87.09
2023-01-25T09:20:57.199Z,86.97
2023-01-25T09:23:10.733Z,87.07
2023-01-25T09:25:23.946Z,86.96
2023-01-25T09:27:36.966Z,87.05
2023-01-25T09:30:01.528Z,87.00
2023-01-25T09:32:15.822Z,87.09
2023-01-25T09:34:39.954Z,87.06
2023-01-25T09:36:53.405Z,86.98
2023-01-25T09:39:06.390Z,86.79
2023-01-25T09:42:03.412Z,86.71
2023-01-25T09:44:33.328Z,87.12
2023-01-25T09:46:50.029Z,87.33
2023-01-25T09:49:11.599Z,87.53
2023-01-25T09:51:30.366Z,87.58
2023-01-25T09:53:44.754Z,87.36
2023-01-25T09:56:01.765Z,87.48
2023-01-25T09:58:22.755Z,87.45
2023-01-25T10:00:39.672Z,87.35
2023-01-25T10:02:58.138Z,87.09
2023-01-25T10:05:16.976Z,87.05
2023-01-25T10:07:38.007Z,86.94
2023-01-25T10:09:56.016Z,86.67
2023-01-25T10:12:17.445Z,86.51
2023-01-25T10:14:34.643Z,86.69
2023-01-25T10:16:53.710Z,86.45
2023-01-25T10:19:18.162Z,86.38
2023-01-25T10:21:37.123Z,86.50
2023-01-25T10:24:27.621Z,86.22
2023-01-25T10:26:43.643Z,85.43
2023-01-25T10:29:04.764Z,85.16
2023-01-25T10:31:23.691Z,84.62
2023-01-25T10:33:48.176Z,84.47
2023-01-25T10:36:04.556Z,84.50
2023-01-25T10:38:24.305Z,84.51
2023-01-25T10:40:43.528Z,84.65
2023-01-25T10:43:01.064Z,84.59
2023-01-25T10:45:19.803Z,84.53
2023-01-25T10:47:38.394Z,84.43
2023-01-25T10:49:54.616Z,84.34
2023-01-25T10:52:19.795Z,84.72
2023-01-25T10:54:33.264Z,85.03
2023-01-25T10:56:47.463Z,85.14
2023-01-25T10:59:18.947Z,85.08
2023-01-25T11:01:39.572Z,84.78
2023-01-25T11:03:53.323Z,84.88
2023-01-25T11:06:06.933Z,84.88
2023-01-25T11:08:36.077Z,84.90
2023-01-25T11:10:51.027Z,85.13
2023-01-25T11:13:30.087Z,85.07
2023-01-25T11:15:45.804Z,85.25
2023-01-25T11:20:33.904Z,85.05
2023-01-25T11:22:56.001Z,85.20
2023-01-25T11:25:35.688Z,85.03
2023-01-25T11:27:48.652Z,84.80
2023-01-25T11:30:23.703Z,84.65
2023-01-25T11:32:41.463Z,84.71
2023-01-25T11:34:55.083Z,84.48
2023-01-25T11:37:26.061Z,84.70
2023-01-25T11:39:51.865Z,84.71
2023-01-25T11:42:15.884Z,84.82
2023-01-25T11:45:09.570Z,84.92
2023-01-25T11:47:35.530Z,84.89
2023-01-25T11:49:58.091Z,84.96
2023-01-25T11:52:25.824Z,85.03
2023-01-25T11:54:50.503Z,85.11
2023-01-25T11:57:11.166Z,84.77
2023-01-25T11:59:42.591Z,84.66
2023-01-25T12:02:12.076Z,84.83
2023-01-25T12:04:45.283Z,85.06
2023-01-25T12:07:04.610Z,85.32
2023-01-25T12:09:33.821Z,85.58
2023-01-25T12:12:09.938Z,85.87
2023-01-25T12:14:35.885Z,85.93
2023-01-25T12:17:07.033Z,85.99
2023-01-25T12:19:38.614Z,86.08
2023-01-25T12:22:10.903Z,86.12
2023-01-25T12:24:35.442Z,86.10
2023-01-25T12:27:00.975Z,86.16
2023-01-25T12:29:34.216Z,86.17
2023-01-25T12:31:55.305Z,86.29
2023-01-25T12:34:12.704Z,86.40
2023-01-25T12:36:33.067Z,86.87
2023-01-25T12:38:52.629Z,87.08
2023-01-25T12:41:07.353Z,87.50
2023-01-25T12:43:25.223Z,87.81
2023-01-25T12:45:42.981Z,88.00
2023-01-25T12:48:00.392Z,88.06
2023-01-25T12:50:22.605Z,88.38
2023-01-25T12:52:38.315Z,88.82
2023-01-25T12:54:52.097Z,88.85
2023-01-25T12:57:20.296Z,89.04
2023-01-25T12:59:43.510Z,89.33
2023-01-25T13:02:01.567Z,89.51
2023-01-25T13:04:29.383Z,89.81
2023-01-25T13:06:48.252Z,90.03
2023-01-25T13:09:08.286Z,90.07
2023-01-25T13:11:26.968Z,89.80
2023-01-25T13:13:39.942Z,89.91
2023-01-25T13:15:54.268Z,89.90
2023-01-25T13:18:27.634Z,89.72
2023-01-25T13:20:54.630Z,89.53
2023-01-25T13:23:08.202Z,89.62
2023-01-25T13:25:28.493Z,90.08
2023-01-25T13:27:41.837Z,90.21
2023-01-25T13:30:04.984Z,90.32
2023-01-25T13:32:40.213Z,90.11
2023-01-25T13:35:28.473Z,89.96
2023-01-25T13:37:43.731Z,89.86
2023-01-25T13:40:06.018Z,89.78
2023-01-25T13:42:31.664Z,90.09
2023-01-25T13:44:51.975Z,89.97
2023-01-25T13:47:09.511Z,90.24
2023-01-25T13:49:30.554Z,90.36
2023-01-25T13:51:45.844Z,90.46
2023-01-25T13:54:05.854Z,90.26
2023-01-25T13:56:34.343Z,90.74
2023-01-25T13:58:53.254Z,91.31
2023-01-25T14:01:07.565Z,91.66
2023-01-25T14:03:21.290Z,91.70
2023-01-25T14:05:34.435Z,91.68
2023-01-25T14:07:51.022Z,91.94
2023-01-25T14:10:11.641Z,91.91
2023-01-25T14:12:34.442Z,91.89
2023-01-25T14:14:50.560Z,92.01
2023-01-25T14:17:16.648Z,91.88
2023-01-25T14:19:32.057Z,91.86
2023-01-25T14:21:45.470Z,91.79
2023-01-25T14:24:12.128Z,91.72
2023-01-25T14:26:28.033Z,91.78
2023-01-25T14:28:41.134Z,91.85
2023-01-25T14:30:59.260Z,91.85
2023-01-25T14:33:24.566Z,91.83
2023-01-25T14:35:59.962Z,91.76
2023-01-25T14:38:30.588Z,92.01
2023-01-25T14:40:44.464Z,92.02
2023-01-25T14:42:59.542Z,91.92
2023-01-25T14:45:18.089Z,91.82
2023-01-25T14:47:37.006Z,91.93
2023-01-25T14:49:50.587Z,91.85
2023-01-25T14:52:08.516Z,91.91
2023-01-25T14:54:24.805Z,92.01
2023-01-25T14:56:48.212Z,92.02
2023-01-25T14:59:02.030Z,92.02
2023-01-25T15:01:29.590Z,92.01
2023-01-25T15:03:48.876Z,92.05
2023-01-25T15:06:06.190Z,92.03
2023-01-25T15:08:31.032Z,92.08
2023-01-25T15:10:54.900Z,91.88
2023-01-25T15:13:22.444Z,91.97
2023-01-25T15:15:36.685Z,91.93
2023-01-25T15:17:51.995Z,91.86
2023-01-25T15:20:05.466Z,91.92
2023-01-25T15:22:18.874Z,92.00
2023-01-25T15:24:32.249Z,92.03
2023-01-25T15:26:45.226Z,91.98
2023-01-25T15:28:59.735Z,92.01
2023-01-25T15:31:19.135Z,91.77
2023-01-25T15:33:33.614Z,91.82
2023-01-25T15:35:46.345Z,91.73
2023-01-25T15:37:59.194Z,91.57
2023-01-25T15:40:15.128Z,91.42
2023-01-25T15:42:30.179Z,91.13
2023-01-25T15:44:43.348Z,91.16
2023-01-25T15:46:57.067Z,91.07
2023-01-25T15:49:11.054Z,91.04
2023-01-25T15:51:24.498Z,90.90
2023-01-25T15:53:37.372Z,90.68
2023-01-25T15:55:54.297Z,90.49
2023-01-25T15:58:07.598Z,90.15
2023-01-25T16:00:26.085Z,90.12
2023-01-25T16:02:39.422Z,90.15
2023-01-25T16:04:52.586Z,90.33
2023-01-25T16:07:05.344Z,90.51
2023-01-25T16:09:28.363Z,90.57
2023-01-25T16:11:41.434Z,90.66
2023-01-25T16:13:54.292Z,90.63
2023-01-25T16:16:07.354Z,90.66
2023-01-25T16:18:20.754Z,90.85
2023-01-25T16:20:34.587Z,90.83
2023-01-25T16:22:48.183Z,90.77
2023-01-25T16:25:02.249Z,91.02
2023-01-25T16:27:26.684Z,90.99
2023-01-25T16:29:39.564Z,91.28
2023-01-25T16:31:52.866Z,91.37
2023-01-25T16:34:06.357Z,91.65
2023-01-25T16:36:22.016Z,91.57
2023-01-25T16:38:36.553Z,91.78
2023-01-25T16:40:49.814Z,92.00
2023-01-25T16:43:02.763Z,92.23
2023-01-25T16:45:17.929Z,92.52
2023-01-25T16:47:31.107Z,92.76
2023-01-25T16:49:44.244Z,92.66
2023-01-25T16:51:58.189Z,92.47
2023-01-25T16:54:14.693Z,92.40
2023-01-25T16:56:29.176Z,92.30
2023-01-25T16:58:43.044Z,92.41
2023-01-25T17:00:56.940Z,91.96
2023-01-25T17:03:10.062Z,91.98
2023-01-25T17:05:26.494Z,91.99
2023-01-25T17:07:40.045Z,92.22
2023-01-25T17:09:52.976Z,92.50
2023-01-25T17:12:07.753Z,92.46
2023-01-25T17:14:22.996Z,92.63
2023-01-25T17:16:37.055Z,92.94
2023-01-25T17:18:51.078Z,93.32
2023-01-25T17:21:07.694Z,93.66
2023-01-25T17:23:20.991Z,93.78
2023-01-25T17:25:36.665Z,93.89
2023-01-25T17:27:49.685Z,93.89
2023-01-25T17:30:03.204Z,94.10
2023-01-25T17:32:16.205Z,94.15
2023-01-25T17:34:29.635Z,93.94
2023-01-25T17:36:44.830Z,93.87
2023-01-25T17:38:57.804Z,93.98
2023-01-25T17:41:15.654Z,93.72
2023-01-25T17:43:29.134Z,93.13
2023-01-25T17:45:42.010Z,93.28
2023-01-25T17:47:55.203Z,93.16
2023-01-25T17:50:09.804Z,92.61
2023-01-25T17:52:23.399Z,92.23
2023-01-25T17:54:37.387Z,92.35
2023-01-25T17:56:50.394Z,92.26
2023-01-25T17:59:03.693Z,92.10
2023-01-25T18:01:21.613Z,91.82
2023-01-25T18:03:35.285Z,91.80
2023-01-25T18:05:51.317Z,91.87
2023-01-25T18:08:04.704Z,91.96
2023-01-25T18:10:18.303Z,91.81
2023-01-25T18:12:31.195Z,91.86
2023-01-25T18:14:46.237Z,92.09
2023-01-25T18:16:59.534Z,91.95
2023-01-25T18:19:13.124Z,91.89
2023-01-25T18:21:28.245Z,92.19
2023-01-25T18:23:42.019Z,92.30
2023-01-25T18:25:55.652Z,92.25
2023-01-25T18:28:08.962Z,92.30
2023-01-25T18:30:37.965Z,92.24
2023-01-25T18:32:52.005Z,92.00
2023-01-25T18:35:05.562Z,91.87
2023-01-25T18:37:22.343Z,91.30
2023-01-25T18:39:35.460Z,90.99
2023-01-25T18:41:48.365Z,90.93
2023-01-25T18:44:01.824Z,90.70
2023-01-25T18:46:15.244Z,90.90
2023-01-25T18:48:31.814Z,90.87
2023-01-25T18:50:47.265Z,90.94
2023-01-25T18:53:00.316Z,91.14
2023-01-25T18:55:13.775Z,91.11
2023-01-25T18:57:27.106Z,91.15
2023-01-25T18:59:43.720Z,91.13
2023-01-25T19:01:56.966Z,91.23
2023-01-25T19:04:10.764Z,91.38
2023-01-25T19:06:25.279Z,90.99
2023-01-25T19:08:42.395Z,90.96
2023-01-25T19:11:01.224Z,90.93
2023-01-25T19:13:14.313Z,90.60
2023-01-25T19:15:28.074Z,90.25
2023-01-25T19:17:41.739Z,90.08
2023-01-25T19:19:55.275Z,89.95
2023-01-25T19:22:08.854Z,90.02
2023-01-25T19:24:22.252Z,90.10
2023-01-25T19:26:35.483Z,89.82
2023-01-25T19:28:49.223Z,89.84
2023-01-25T19:31:08.897Z,89.68
2023-01-25T19:33:22.334Z,89.69
2023-01-25T19:35:35.849Z,89.63
2023-01-25T19:37:48.683Z,89.44
2023-01-25T19:40:02.127Z,89.41
2023-01-25T19:42:18.621Z,89.46
2023-01-25T19:44:33.244Z,89.53
2023-01-25T19:46:47.312Z,89.56
2023-01-25T19:49:01.647Z,89.48
2023-01-25T19:51:17.623Z,89.20
2023-01-25T19:53:30.843Z,89.00
2023-01-25T19:55:44.374Z,88.78
2023-01-25T19:57:57.942Z,88.64
2023-01-25T20:00:12.983Z,88.58
2023-01-25T20:02:25.897Z,88.56
2023-01-25T20:04:38.807Z,88.44
2023-01-25T20:06:53.124Z,88.41
2023-01-25T20:09:07.294Z,88.13
2023-01-25T20:11:22.243Z,88.31
2023-01-25T20:13:35.784Z,88.28
2023-01-25T20:15:54.783Z,88.32
2023-01-25T20:18:08.675Z,88.22
2023-01-25T20:20:22.654Z,87.62
2023-01-25T20:22:35.626Z,87.46
2023-01-25T20:24:48.526Z,87.09
2023-01-25T20:27:04.292Z,87.28
2023-01-25T20:29:18.476Z,87.28
2023-01-25T20:31:34.847Z,86.64
2023-01-25T20:33:48.175Z,86.89
2023-01-25T20:36:05.457Z,86.73
2023-01-25T20:38:19.004Z,85.42
2023-01-25T20:40:31.898Z,85.88
2023-01-25T20:42:45.314Z,85.49
2023-01-25T20:44:58.727Z,84.42
2023-01-25T20:47:12.344Z,84.61
2023-01-25T20:49:25.974Z,84.83
2023-01-25T20:51:39.614Z,85.07
2023-01-25T20:53:55.135Z,84.41
2023-01-25T20:56:08.598Z,84.40
2023-01-25T20:58:21.763Z,83.94
2023-01-25T21:00:34.995Z,83.81
2023-01-25T21:02:47.865Z,83.54
2023-01-25T21:05:00.816Z,83.70
2023-01-25T21:07:13.735Z,83.38
2023-01-25T21:09:29.514Z,82.52
2023-01-25T21:11:42.751Z,83.04
2023-01-25T21:13:57.036Z,83.06
2023-01-25T21:16:13.784Z,83.53
2023-01-25T21:18:26.736Z,83.33
2023-01-25T21:20:40.190Z,83.51
2023-01-25T21:22:53.857Z,83.40
2023-01-25T21:25:07.089Z,83.37
2023-01-25T21:27:20.253Z,82.79
2023-01-25T21:29:33.134Z,82.61
2023-01-25T21:31:46.222Z,82.58
2023-01-25T21:34:00.049Z,82.82
2023-01-25T21:36:17.282Z,82.51
2023-01-25T21:38:31.014Z,83.02
2023-01-25T21:40:44.559Z,82.84
2023-01-25T21:42:57.837Z,82.75
2023-01-25T21:45:28.998Z,83.05
2023-01-25T21:47:42.111Z,83.19
2023-01-25T21:50:11.626Z,83.29
2023-01-25T21:52:24.475Z,83.68
2023-01-25T21:54:40.074Z,83.44
2023-01-25T21:56:55.201Z,83.91
2023-01-25T21:59:08.664Z,83.61
2023-01-25T22:01:22.152Z,84.06
2023-01-25T22:03:35.928Z,84.36
2023-01-25T22:05:57.185Z,83.70
2023-01-25T22:08:10.894Z,84.01
2023-01-25T22:10:24.288Z,83.22
2023-01-25T22:12:37.095Z,83.19
2023-01-25T22:14:50.174Z,82.85
2023-01-25T22:17:04.274Z,82.68
2023-01-25T22:19:18.945Z,83.02
2023-01-25T22:21:33.648Z,82.73
2023-01-25T22:23:48.323Z,83.04
2023-01-25T22:26:14.844Z,82.81
2023-01-25T22:28:30.104Z,82.31
2023-01-25T22:30:43.629Z,81.63
2023-01-25T22:32:57.115Z,81.49
2023-01-25T22:35:11.147Z,81.41
2023-01-25T22:37:24.103Z,81.25
2023-01-25T22:39:37.313Z,82.10
2023-01-25T22:41:50.665Z,82.64
2023-01-25T22:44:03.987Z,82.52
2023-01-25T22:46:18.671Z,82.07
2023-01-25T22:48:31.765Z,81.81
2023-01-25T22:50:44.844Z,81.90
2023-01-25T22:52:57.854Z,81.36
2023-01-25T22:55:12.147Z,81.61
2023-01-25T22:57:26.894Z,81.53
2023-01-25T22:59:40.243Z,81.56
2023-01-25T23:01:54.246Z,82.13
2023-01-25T23:04:08.257Z,82.34
2023-01-25T23:06:23.801Z,82.29
2023-01-25T23:08:39.273Z,82.21
2023-01-25T23:10:52.543Z,81.88
2023-01-25T23:13:05.796Z,81.54
2023-01-25T23:15:19.443Z,80.69
2023-01-25T23:17:49.133Z,80.74
2023-01-25T23:20:02.187Z,80.09
2023-01-25T23:22:15.047Z,79.98
2023-01-25T23:24:29.313Z,80.11
2023-01-25T23:26:47.533Z,79.62
2023-01-25T23:29:01.634Z,78.80
2023-01-25T23:31:20.625Z,78.27
2023-01-25T23:33:35.413Z,77.93
2023-01-25T23:35:49.363Z,78.12
2023-01-25T23:38:02.329Z,78.49
2023-01-25T23:40:19.887Z,78.27
2023-01-25T23:42:33.116Z,78.10
2023-01-25T23:44:46.595Z,78.43
2023-01-25T23:46:59.804Z,78.60
2023-01-25T23:49:13.432Z,78.83
2023-01-25T23:51:26.923Z,78.99
2023-01-25T23:53:40.345Z,78.60
2023-01-25T23:56:00.943Z,78.11
2023-01-25T23:58:14.173Z,78.17
